sensor_id;sensor_type;location;lat;lon;timestamp;temperature;humidity
16929;DHT22;8581;47.334;11.190;2023-08-01T00:02:29;15.10;99.90
16929;DHT22;8581;47.334;11.190;2023-08-01T00:05:01;14.90;99.90
16929;DHT22;8581;47.334;11.190;2023-08-01T00:07:32;15.00;99.90
16929;DHT22;8581;47.334;11.190;2023-08-01T00:10:05;15.00;99.90
16929;DHT22;8581;47.334;11.190;2023-08-01T00:12:36;14.90;99.90
16929;DHT22;8581;47.334;11.190;2023-08-01T00:15:08;14.80;99.90
16929;DHT22;8581;47.334;11.190;2023-08-01T00:17:40;14.80;99.90
16929;DHT22;8581;47.334;11.190;2023-08-01T00:20:12;14.80;99.90
16929;DHT22;8581;47.334;11.190;2023-08-01T00:22:43;14.80;99.90
16929;DHT22;8581;47.334;11.190;2023-08-01T00:25:15;15.00;99.90
16929;DHT22;8581;47.334;11.190;2023-08-01T00:27:46;14.70;99.90
16929;DHT22;8581;47.334;11.190;2023-08-01T00:30:18;14.60;99.90
16929;DHT22;8581;47.334;11.190;2023-08-01T00:32:50;14.60;99.90
16929;DHT22;8581;47.334;11.190;2023-08-01T00:35:21;14.80;99.90
16929;DHT22;8581;47.334;11.190;2023-08-01T00:37:53;14.50;99.90
16929;DHT22;8581;47.334;11.190;2023-08-01T00:40:29;14.40;99.90
16929;DHT22;8581;47.334;11.190;2023-08-01T00:42:56;14.30;99.90
16929;DHT22;8581;47.334;11.190;2023-08-01T00:45:28;14.40;99.90
16929;DHT22;8581;47.334;11.190;2023-08-01T00:47:59;14.50;99.90
16929;DHT22;8581;47.334;11.190;2023-08-01T00:50:31;14.30;99.90
16929;DHT22;8581;47.334;11.190;2023-08-01T00:53:02;14.30;99.90
16929;DHT22;8581;47.334;11.190;2023-08-01T00:55:34;14.30;99.90
16929;DHT22;8581;47.334;11.190;2023-08-01T00:58:06;14.30;99.90
16929;DHT22;8581;47.334;11.190;2023-08-01T01:00:37;14.40;99.90
16929;DHT22;8581;47.334;11.190;2023-08-01T01:03:09;14.50;99.90
16929;DHT22;8581;47.334;11.190;2023-08-01T01:05:43;14.60;99.90
16929;DHT22;8581;47.334;11.190;2023-08-01T01:08:12;14.50;99.90
16929;DHT22;8581;47.334;11.190;2023-08-01T01:10:44;14.60;99.90
16929;DHT22;8581;47.334;11.190;2023-08-01T01:13:15;14.50;99.90
16929;DHT22;8581;47.334;11.190;2023-08-01T01:15:47;14.60;99.90
16929;DHT22;8581;47.334;11.190;2023-08-01T01:18:18;14.70;99.90
16929;DHT22;8581;47.334;11.190;2023-08-01T01:20:50;14.60;99.90
16929;DHT22;8581;47.334;11.190;2023-08-01T01:23:22;14.50;99.90
16929;DHT22;8581;47.334;11.190;2023-08-01T01:25:53;14.50;99.90
16929;DHT22;8581;47.334;11.190;2023-08-01T01:28:25;14.40;99.90
16929;DHT22;8581;47.334;11.190;2023-08-01T01:30:56;14.50;99.90
16929;DHT22;8581;47.334;11.190;2023-08-01T01:33:28;14.60;99.90
16929;DHT22;8581;47.334;11.190;2023-08-01T01:36:00;14.50;99.90
16929;DHT22;8581;47.334;11.190;2023-08-01T01:38:32;14.40;99.90
16929;DHT22;8581;47.334;11.190;2023-08-01T01:41:13;14.40;99.90
16929;DHT22;8581;47.334;11.190;2023-08-01T01:43:44;14.40;99.90
16929;DHT22;8581;47.334;11.190;2023-08-01T01:46:17;14.50;99.90
16929;DHT22;8581;47.334;11.190;2023-08-01T01:48:48;14.40;99.90
16929;DHT22;8581;47.334;11.190;2023-08-01T01:51:21;14.40;99.90
16929;DHT22;8581;47.334;11.190;2023-08-01T01:53:52;14.50;99.90
16929;DHT22;8581;47.334;11.190;2023-08-01T01:56:24;14.60;99.90
16929;DHT22;8581;47.334;11.190;2023-08-01T01:58:56;14.60;99.90
16929;DHT22;8581;47.334;11.190;2023-08-01T02:01:28;14.60;99.90
16929;DHT22;8581;47.334;11.190;2023-08-01T02:04:01;14.60;99.90
16929;DHT22;8581;47.334;11.190;2023-08-01T02:06:34;14.60;99.90
16929;DHT22;8581;47.334;11.190;2023-08-01T02:09:06;14.40;99.90
16929;DHT22;8581;47.334;11.190;2023-08-01T02:11:37;14.30;99.90
16929;DHT22;8581;47.334;11.190;2023-08-01T02:14:10;14.40;99.90
16929;DHT22;8581;47.334;11.190;2023-08-01T02:16:43;14.40;99.90
16929;DHT22;8581;47.334;11.190;2023-08-01T02:19:15;14.50;99.90
16929;DHT22;8581;47.334;11.190;2023-08-01T02:21:47;14.50;99.90
16929;DHT22;8581;47.334;11.190;2023-08-01T02:24:19;14.50;99.90
16929;DHT22;8581;47.334;11.190;2023-08-01T02:26:50;14.60;99.90
16929;DHT22;8581;47.334;11.190;2023-08-01T02:29:22;14.50;99.90
16929;DHT22;8581;47.334;11.190;2023-08-01T02:31:56;14.40;99.90
16929;DHT22;8581;47.334;11.190;2023-08-01T02:34:28;14.30;99.90
16929;DHT22;8581;47.334;11.190;2023-08-01T02:37:00;14.40;99.90
16929;DHT22;8581;47.334;11.190;2023-08-01T02:39:32;14.30;99.90
16929;DHT22;8581;47.334;11.190;2023-08-01T02:42:06;14.30;99.90
16929;DHT22;8581;47.334;11.190;2023-08-01T02:44:37;14.40;99.90
16929;DHT22;8581;47.334;11.190;2023-08-01T02:47:09;14.40;99.90
16929;DHT22;8581;47.334;11.190;2023-08-01T02:49:40;14.40;99.90
16929;DHT22;8581;47.334;11.190;2023-08-01T02:52:12;14.80;99.90
16929;DHT22;8581;47.334;11.190;2023-08-01T02:54:44;14.80;99.90
16929;DHT22;8581;47.334;11.190;2023-08-01T02:57:15;14.70;99.90
16929;DHT22;8581;47.334;11.190;2023-08-01T02:59:47;14.40;99.90
16929;DHT22;8581;47.334;11.190;2023-08-01T03:02:18;14.10;99.90
16929;DHT22;8581;47.334;11.190;2023-08-01T03:04:50;13.90;99.90
16929;DHT22;8581;47.334;11.190;2023-08-01T03:07:22;13.90;99.90
16929;DHT22;8581;47.334;11.190;2023-08-01T03:09:53;13.90;99.90
16929;DHT22;8581;47.334;11.190;2023-08-01T03:12:25;14.00;99.90
16929;DHT22;8581;47.334;11.190;2023-08-01T03:14:56;14.00;99.90
16929;DHT22;8581;47.334;11.190;2023-08-01T03:17:28;14.10;99.90
16929;DHT22;8581;47.334;11.190;2023-08-01T03:20:00;14.20;99.90
16929;DHT22;8581;47.334;11.190;2023-08-01T03:22:31;14.30;99.90
16929;DHT22;8581;47.334;11.190;2023-08-01T03:25:03;14.20;99.90
16929;DHT22;8581;47.334;11.190;2023-08-01T03:27:35;14.10;99.90
16929;DHT22;8581;47.334;11.190;2023-08-01T03:30:07;14.10;99.90
16929;DHT22;8581;47.334;11.190;2023-08-01T03:32:39;14.10;99.90
16929;DHT22;8581;47.334;11.190;2023-08-01T03:35:11;14.40;99.90
16929;DHT22;8581;47.334;11.190;2023-08-01T03:37:42;14.20;99.90
16929;DHT22;8581;47.334;11.190;2023-08-01T03:40:14;14.30;99.90
16929;DHT22;8581;47.334;11.190;2023-08-01T03:42:46;14.30;99.90
16929;DHT22;8581;47.334;11.190;2023-08-01T03:45:17;14.20;99.90
16929;DHT22;8581;47.334;11.190;2023-08-01T03:47:49;14.30;99.90
16929;DHT22;8581;47.334;11.190;2023-08-01T03:50:20;14.30;99.90
16929;DHT22;8581;47.334;11.190;2023-08-01T03:52:52;14.20;99.90
16929;DHT22;8581;47.334;11.190;2023-08-01T03:55:24;14.30;99.90
16929;DHT22;8581;47.334;11.190;2023-08-01T03:57:55;14.30;99.90
16929;DHT22;8581;47.334;11.190;2023-08-01T04:00:27;14.40;99.90
16929;DHT22;8581;47.334;11.190;2023-08-01T04:02:58;14.50;99.90
16929;DHT22;8581;47.334;11.190;2023-08-01T04:05:30;14.50;99.90
16929;DHT22;8581;47.334;11.190;2023-08-01T04:08:02;14.60;99.90
16929;DHT22;8581;47.334;11.190;2023-08-01T04:10:33;14.40;99.90
16929;DHT22;8581;47.334;11.190;2023-08-01T04:13:05;14.40;99.90
16929;DHT22;8581;47.334;11.190;2023-08-01T04:15:36;14.30;99.90
16929;DHT22;8581;47.334;11.190;2023-08-01T04:18:08;14.30;99.90
16929;DHT22;8581;47.334;11.190;2023-08-01T04:20:40;14.20;99.90
16929;DHT22;8581;47.334;11.190;2023-08-01T04:23:11;14.20;99.90
16929;DHT22;8581;47.334;11.190;2023-08-01T04:25:43;14.30;99.90
16929;DHT22;8581;47.334;11.190;2023-08-01T04:28:14;14.30;99.90
16929;DHT22;8581;47.334;11.190;2023-08-01T04:30:50;14.30;99.90
16929;DHT22;8581;47.334;11.190;2023-08-01T04:33:21;14.40;99.90
16929;DHT22;8581;47.334;11.190;2023-08-01T04:35:53;14.50;99.90
16929;DHT22;8581;47.334;11.190;2023-08-01T04:38:24;14.60;99.90
16929;DHT22;8581;47.334;11.190;2023-08-01T04:40:56;14.70;99.90
16929;DHT22;8581;47.334;11.190;2023-08-01T04:43:27;14.70;99.90
16929;DHT22;8581;47.334;11.190;2023-08-01T04:45:59;14.70;99.90
16929;DHT22;8581;47.334;11.190;2023-08-01T04:48:30;14.80;99.90
16929;DHT22;8581;47.334;11.190;2023-08-01T04:51:02;14.70;99.90
16929;DHT22;8581;47.334;11.190;2023-08-01T04:53:34;14.60;99.90
16929;DHT22;8581;47.334;11.190;2023-08-01T04:56:05;14.60;99.90
16929;DHT22;8581;47.334;11.190;2023-08-01T04:58:37;14.60;99.90
16929;DHT22;8581;47.334;11.190;2023-08-01T05:01:08;14.60;99.90
16929;DHT22;8581;47.334;11.190;2023-08-01T05:03:40;14.70;99.90
16929;DHT22;8581;47.334;11.190;2023-08-01T05:06:12;14.90;99.90
16929;DHT22;8581;47.334;11.190;2023-08-01T05:08:43;15.00;99.90
16929;DHT22;8581;47.334;11.190;2023-08-01T05:11:15;14.90;99.90
16929;DHT22;8581;47.334;11.190;2023-08-01T05:13:46;15.00;99.90
16929;DHT22;8581;47.334;11.190;2023-08-01T05:16:18;15.10;99.90
16929;DHT22;8581;47.334;11.190;2023-08-01T05:18:50;15.20;99.90
16929;DHT22;8581;47.334;11.190;2023-08-01T05:21:21;15.30;99.90
16929;DHT22;8581;47.334;11.190;2023-08-01T05:23:53;15.10;99.90
16929;DHT22;8581;47.334;11.190;2023-08-01T05:26:24;15.10;99.90
16929;DHT22;8581;47.334;11.190;2023-08-01T05:28:56;14.90;99.90
16929;DHT22;8581;47.334;11.190;2023-08-01T05:31:28;15.00;99.90
16929;DHT22;8581;47.334;11.190;2023-08-01T05:33:59;15.00;99.90
16929;DHT22;8581;47.334;11.190;2023-08-01T05:36:31;15.00;99.90
16929;DHT22;8581;47.334;11.190;2023-08-01T05:39:02;15.00;99.90
16929;DHT22;8581;47.334;11.190;2023-08-01T05:41:34;15.00;99.90
16929;DHT22;8581;47.334;11.190;2023-08-01T05:44:06;15.00;99.90
16929;DHT22;8581;47.334;11.190;2023-08-01T05:46:37;14.70;99.90
16929;DHT22;8581;47.334;11.190;2023-08-01T05:49:09;14.40;99.90
16929;DHT22;8581;47.334;11.190;2023-08-01T05:51:40;14.20;99.90
16929;DHT22;8581;47.334;11.190;2023-08-01T05:54:12;14.10;99.90
16929;DHT22;8581;47.334;11.190;2023-08-01T05:56:44;14.10;99.90
16929;DHT22;8581;47.334;11.190;2023-08-01T05:59:15;14.30;99.90
16929;DHT22;8581;47.334;11.190;2023-08-01T06:01:47;14.50;99.90
16929;DHT22;8581;47.334;11.190;2023-08-01T06:04:18;14.60;99.90
16929;DHT22;8581;47.334;11.190;2023-08-01T06:06:50;14.60;99.90
16929;DHT22;8581;47.334;11.190;2023-08-01T06:09:22;14.70;99.90
16929;DHT22;8581;47.334;11.190;2023-08-01T06:11:53;14.70;99.90
16929;DHT22;8581;47.334;11.190;2023-08-01T06:14:25;14.90;99.90
16929;DHT22;8581;47.334;11.190;2023-08-01T06:16:56;14.90;99.90
16929;DHT22;8581;47.334;11.190;2023-08-01T06:19:28;14.70;99.90
16929;DHT22;8581;47.334;11.190;2023-08-01T06:22:00;14.30;99.90
16929;DHT22;8581;47.334;11.190;2023-08-01T06:24:31;14.30;99.90
16929;DHT22;8581;47.334;11.190;2023-08-01T06:27:05;14.50;99.90
16929;DHT22;8581;47.334;11.190;2023-08-01T06:29:36;14.60;99.90
16929;DHT22;8581;47.334;11.190;2023-08-01T06:32:08;14.70;99.90
16929;DHT22;8581;47.334;11.190;2023-08-01T06:34:40;14.70;99.90
16929;DHT22;8581;47.334;11.190;2023-08-01T06:37:11;14.60;99.90
16929;DHT22;8581;47.334;11.190;2023-08-01T06:39:43;14.70;99.90
16929;DHT22;8581;47.334;11.190;2023-08-01T06:42:14;14.70;99.90
16929;DHT22;8581;47.334;11.190;2023-08-01T06:44:46;14.60;99.90
16929;DHT22;8581;47.334;11.190;2023-08-01T06:47:18;14.60;99.90
16929;DHT22;8581;47.334;11.190;2023-08-01T06:49:49;14.80;99.90
16929;DHT22;8581;47.334;11.190;2023-08-01T06:52:21;14.90;99.90
16929;DHT22;8581;47.334;11.190;2023-08-01T06:54:52;15.00;99.90
16929;DHT22;8581;47.334;11.190;2023-08-01T06:57:24;15.00;99.90
16929;DHT22;8581;47.334;11.190;2023-08-01T06:59:56;15.10;99.90
16929;DHT22;8581;47.334;11.190;2023-08-01T07:02:28;15.00;99.90
16929;DHT22;8581;47.334;11.190;2023-08-01T07:05:00;15.10;99.90
16929;DHT22;8581;47.334;11.190;2023-08-01T07:07:31;15.10;99.90
16929;DHT22;8581;47.334;11.190;2023-08-01T07:10:04;15.20;99.90
16929;DHT22;8581;47.334;11.190;2023-08-01T07:12:35;15.00;99.90
16929;DHT22;8581;47.334;11.190;2023-08-01T07:15:08;14.80;99.90
16929;DHT22;8581;47.334;11.190;2023-08-01T07:17:40;14.80;99.90
16929;DHT22;8581;47.334;11.190;2023-08-01T07:20:11;14.90;99.90
16929;DHT22;8581;47.334;11.190;2023-08-01T07:22:43;15.00;99.90
16929;DHT22;8581;47.334;11.190;2023-08-01T07:25:15;15.00;99.90
16929;DHT22;8581;47.334;11.190;2023-08-01T07:27:46;14.70;99.90
16929;DHT22;8581;47.334;11.190;2023-08-01T07:30:18;14.50;99.90
16929;DHT22;8581;47.334;11.190;2023-08-01T07:32:49;14.70;99.90
16929;DHT22;8581;47.334;11.190;2023-08-01T07:35:21;15.00;99.90
16929;DHT22;8581;47.334;11.190;2023-08-01T07:37:53;15.10;99.90
16929;DHT22;8581;47.334;11.190;2023-08-01T07:40:24;15.30;99.90
16929;DHT22;8581;47.334;11.190;2023-08-01T07:42:56;15.40;99.90
16929;DHT22;8581;47.334;11.190;2023-08-01T07:45:27;15.50;99.90
16929;DHT22;8581;47.334;11.190;2023-08-01T07:47:59;15.60;99.90
16929;DHT22;8581;47.334;11.190;2023-08-01T07:50:31;15.80;99.90
16929;DHT22;8581;47.334;11.190;2023-08-01T07:53:02;16.10;99.90
16929;DHT22;8581;47.334;11.190;2023-08-01T07:55:34;16.50;99.90
16929;DHT22;8581;47.334;11.190;2023-08-01T07:58:05;16.70;99.90
16929;DHT22;8581;47.334;11.190;2023-08-01T08:00:37;16.80;99.90
16929;DHT22;8581;47.334;11.190;2023-08-01T08:03:09;16.90;99.90
16929;DHT22;8581;47.334;11.190;2023-08-01T08:05:40;16.80;99.90
16929;DHT22;8581;47.334;11.190;2023-08-01T08:08:12;16.90;99.90
16929;DHT22;8581;47.334;11.190;2023-08-01T08:10:43;16.70;99.90
16929;DHT22;8581;47.334;11.190;2023-08-01T08:13:15;16.60;99.90
16929;DHT22;8581;47.334;11.190;2023-08-01T08:15:47;16.80;99.90
16929;DHT22;8581;47.334;11.190;2023-08-01T08:18:18;17.00;99.90
16929;DHT22;8581;47.334;11.190;2023-08-01T08:20:50;17.70;99.90
16929;DHT22;8581;47.334;11.190;2023-08-01T08:23:21;18.40;99.90
16929;DHT22;8581;47.334;11.190;2023-08-01T08:25:53;18.50;99.90
16929;DHT22;8581;47.334;11.190;2023-08-01T08:28:28;18.30;99.90
16929;DHT22;8581;47.334;11.190;2023-08-01T08:30:59;18.30;99.90
16929;DHT22;8581;47.334;11.190;2023-08-01T08:33:31;18.20;99.90
16929;DHT22;8581;47.334;11.190;2023-08-01T08:36:02;18.10;99.90
16929;DHT22;8581;47.334;11.190;2023-08-01T08:38:34;17.70;99.90
16929;DHT22;8581;47.334;11.190;2023-08-01T08:41:08;17.60;99.90
16929;DHT22;8581;47.334;11.190;2023-08-01T08:43:38;17.60;99.90
16929;DHT22;8581;47.334;11.190;2023-08-01T08:46:09;17.40;99.90
16929;DHT22;8581;47.334;11.190;2023-08-01T08:48:41;17.00;99.90
16929;DHT22;8581;47.334;11.190;2023-08-01T08:51:12;16.60;99.90
16929;DHT22;8581;47.334;11.190;2023-08-01T08:53:44;16.40;99.90
16929;DHT22;8581;47.334;11.190;2023-08-01T08:56:16;16.30;99.90
16929;DHT22;8581;47.334;11.190;2023-08-01T08:58:47;16.50;99.90
16929;DHT22;8581;47.334;11.190;2023-08-01T09:01:19;16.60;99.90
16929;DHT22;8581;47.334;11.190;2023-08-01T09:03:50;16.60;99.90
16929;DHT22;8581;47.334;11.190;2023-08-01T09:06:24;16.90;99.90
16929;DHT22;8581;47.334;11.190;2023-08-01T09:08:58;17.30;99.90
16929;DHT22;8581;47.334;11.190;2023-08-01T09:11:27;17.80;99.90
16929;DHT22;8581;47.334;11.190;2023-08-01T09:13:59;18.30;99.90
16929;DHT22;8581;47.334;11.190;2023-08-01T09:16:30;18.80;99.90
16929;DHT22;8581;47.334;11.190;2023-08-01T09:19:02;19.00;99.90
16929;DHT22;8581;47.334;11.190;2023-08-01T09:21:34;19.20;99.90
16929;DHT22;8581;47.334;11.190;2023-08-01T09:24:10;19.50;99.90
16929;DHT22;8581;47.334;11.190;2023-08-01T09:26:41;19.90;99.90
16929;DHT22;8581;47.334;11.190;2023-08-01T09:29:13;20.40;99.90
16929;DHT22;8581;47.334;11.190;2023-08-01T09:31:44;19.80;99.90
16929;DHT22;8581;47.334;11.190;2023-08-01T09:34:19;20.30;99.90
16929;DHT22;8581;47.334;11.190;2023-08-01T09:36:50;20.20;99.90
16929;DHT22;8581;47.334;11.190;2023-08-01T09:39:21;20.40;99.90
16929;DHT22;8581;47.334;11.190;2023-08-01T09:41:57;20.50;99.90
16929;DHT22;8581;47.334;11.190;2023-08-01T09:44:29;20.60;99.90
16929;DHT22;8581;47.334;11.190;2023-08-01T09:47:01;20.40;99.90
16929;DHT22;8581;47.334;11.190;2023-08-01T09:49:32;19.90;99.90
16929;DHT22;8581;47.334;11.190;2023-08-01T09:52:04;19.40;99.90
16929;DHT22;8581;47.334;11.190;2023-08-01T09:54:36;19.70;99.90
16929;DHT22;8581;47.334;11.190;2023-08-01T09:57:08;19.80;99.90
16929;DHT22;8581;47.334;11.190;2023-08-01T09:59:39;20.10;99.90
16929;DHT22;8581;47.334;11.190;2023-08-01T10:02:12;19.80;99.90
16929;DHT22;8581;47.334;11.190;2023-08-01T10:04:43;19.60;99.90
16929;DHT22;8581;47.334;11.190;2023-08-01T10:07:14;19.70;99.90
16929;DHT22;8581;47.334;11.190;2023-08-01T10:09:46;19.90;99.90
16929;DHT22;8581;47.334;11.190;2023-08-01T10:12:18;20.40;99.90
16929;DHT22;8581;47.334;11.190;2023-08-01T10:14:49;20.10;99.90
16929;DHT22;8581;47.334;11.190;2023-08-01T10:17:21;19.50;99.90
16929;DHT22;8581;47.334;11.190;2023-08-01T10:19:53;19.00;99.90
16929;DHT22;8581;47.334;11.190;2023-08-01T10:22:24;18.60;99.90
16929;DHT22;8581;47.334;11.190;2023-08-01T10:24:56;18.20;99.90
16929;DHT22;8581;47.334;11.190;2023-08-01T10:27:27;18.20;99.90
16929;DHT22;8581;47.334;11.190;2023-08-01T10:30:00;18.40;99.90
16929;DHT22;8581;47.334;11.190;2023-08-01T10:32:32;18.20;99.90
16929;DHT22;8581;47.334;11.190;2023-08-01T10:35:04;17.90;99.90
16929;DHT22;8581;47.334;11.190;2023-08-01T10:37:40;17.90;99.90
16929;DHT22;8581;47.334;11.190;2023-08-01T10:40:11;17.90;99.90
16929;DHT22;8581;47.334;11.190;2023-08-01T10:42:44;17.90;99.90
16929;DHT22;8581;47.334;11.190;2023-08-01T10:45:20;17.80;99.90
16929;DHT22;8581;47.334;11.190;2023-08-01T10:47:51;17.70;99.90
16929;DHT22;8581;47.334;11.190;2023-08-01T10:50:22;17.80;99.90
16929;DHT22;8581;47.334;11.190;2023-08-01T10:53:01;17.90;99.90
16929;DHT22;8581;47.334;11.190;2023-08-01T10:55:26;18.40;99.90
16929;DHT22;8581;47.334;11.190;2023-08-01T10:57:57;19.50;99.90
16929;DHT22;8581;47.334;11.190;2023-08-01T11:00:29;20.40;99.90
16929;DHT22;8581;47.334;11.190;2023-08-01T11:03:00;21.20;99.90
16929;DHT22;8581;47.334;11.190;2023-08-01T11:05:32;21.30;99.90
16929;DHT22;8581;47.334;11.190;2023-08-01T11:08:04;21.20;99.90
16929;DHT22;8581;47.334;11.190;2023-08-01T11:10:35;21.00;99.90
16929;DHT22;8581;47.334;11.190;2023-08-01T11:13:11;20.70;99.90
16929;DHT22;8581;47.334;11.190;2023-08-01T11:15:39;20.70;99.90
16929;DHT22;8581;47.334;11.190;2023-08-01T11:18:10;20.70;99.90
16929;DHT22;8581;47.334;11.190;2023-08-01T11:20:42;20.90;99.90
16929;DHT22;8581;47.334;11.190;2023-08-01T11:23:13;20.40;99.90
16929;DHT22;8581;47.334;11.190;2023-08-01T11:25:45;20.60;99.90
16929;DHT22;8581;47.334;11.190;2023-08-01T11:28:17;21.10;99.90
16929;DHT22;8581;47.334;11.190;2023-08-01T11:30:48;22.00;99.90
16929;DHT22;8581;47.334;11.190;2023-08-01T11:33:20;22.60;99.90
16929;DHT22;8581;47.334;11.190;2023-08-01T11:35:52;22.80;99.90
16929;DHT22;8581;47.334;11.190;2023-08-01T11:38:26;23.90;99.90
16929;DHT22;8581;47.334;11.190;2023-08-01T11:40:57;23.90;99.90
16929;DHT22;8581;47.334;11.190;2023-08-01T11:43:38;24.00;99.90
16929;DHT22;8581;47.334;11.190;2023-08-01T11:46:09;24.50;99.90
16929;DHT22;8581;47.334;11.190;2023-08-01T11:48:44;23.80;99.90
16929;DHT22;8581;47.334;11.190;2023-08-01T11:51:15;23.70;99.90
16929;DHT22;8581;47.334;11.190;2023-08-01T11:53:57;24.70;99.90
16929;DHT22;8581;47.334;11.190;2023-08-01T11:56:20;24.10;99.90
16929;DHT22;8581;47.334;11.190;2023-08-01T11:58:51;22.80;99.90
16929;DHT22;8581;47.334;11.190;2023-08-01T12:01:23;21.50;99.90
16929;DHT22;8581;47.334;11.190;2023-08-01T12:03:54;21.40;99.90
16929;DHT22;8581;47.334;11.190;2023-08-01T12:06:26;21.90;99.90
16929;DHT22;8581;47.334;11.190;2023-08-01T12:09:05;21.60;99.90
16929;DHT22;8581;47.334;11.190;2023-08-01T12:11:29;21.80;99.90
16929;DHT22;8581;47.334;11.190;2023-08-01T12:14:08;22.60;99.90
16929;DHT22;8581;47.334;11.190;2023-08-01T12:16:42;22.20;99.90
16929;DHT22;8581;47.334;11.190;2023-08-01T12:19:18;21.00;99.90
16929;DHT22;8581;47.334;11.190;2023-08-01T12:21:49;21.50;99.90
16929;DHT22;8581;47.334;11.190;2023-08-01T12:24:21;24.80;99.90
16929;DHT22;8581;47.334;11.190;2023-08-01T12:26:53;25.70;99.90
16929;DHT22;8581;47.334;11.190;2023-08-01T12:29:25;25.30;99.90
16929;DHT22;8581;47.334;11.190;2023-08-01T12:31:56;26.60;99.90
16929;DHT22;8581;47.334;11.190;2023-08-01T12:34:28;26.30;99.90
16929;DHT22;8581;47.334;11.190;2023-08-01T12:37:00;27.40;99.90
16929;DHT22;8581;47.334;11.190;2023-08-01T12:39:31;26.70;99.90
16929;DHT22;8581;47.334;11.190;2023-08-01T12:42:04;25.20;99.90
16929;DHT22;8581;47.334;11.190;2023-08-01T12:44:35;23.90;99.90
16929;DHT22;8581;47.334;11.190;2023-08-01T12:47:07;24.00;99.90
16929;DHT22;8581;47.334;11.190;2023-08-01T12:49:39;23.30;99.90
16929;DHT22;8581;47.334;11.190;2023-08-01T12:52:10;22.10;99.90
16929;DHT22;8581;47.334;11.190;2023-08-01T12:54:42;21.40;99.90
16929;DHT22;8581;47.334;11.190;2023-08-01T12:57:13;21.20;99.90
16929;DHT22;8581;47.334;11.190;2023-08-01T12:59:45;22.60;99.90
16929;DHT22;8581;47.334;11.190;2023-08-01T13:02:17;23.40;99.90
16929;DHT22;8581;47.334;11.190;2023-08-01T13:04:48;25.60;99.90
16929;DHT22;8581;47.334;11.190;2023-08-01T13:07:20;27.70;99.90
16929;DHT22;8581;47.334;11.190;2023-08-01T13:09:52;28.50;99.90
16929;DHT22;8581;47.334;11.190;2023-08-01T13:12:23;29.00;99.90
16929;DHT22;8581;47.334;11.190;2023-08-01T13:14:55;26.00;99.90
16929;DHT22;8581;47.334;11.190;2023-08-01T13:17:27;28.40;99.90
16929;DHT22;8581;47.334;11.190;2023-08-01T13:19:59;28.90;99.90
16929;DHT22;8581;47.334;11.190;2023-08-01T13:22:31;27.70;99.90
16929;DHT22;8581;47.334;11.190;2023-08-01T13:25:04;26.80;99.90
16929;DHT22;8581;47.334;11.190;2023-08-01T13:27:36;28.40;99.90
16929;DHT22;8581;47.334;11.190;2023-08-01T13:30:08;29.30;99.90
16929;DHT22;8581;47.334;11.190;2023-08-01T13:32:40;28.90;99.90
16929;DHT22;8581;47.334;11.190;2023-08-01T13:35:12;29.50;99.90
16929;DHT22;8581;47.334;11.190;2023-08-01T13:37:43;29.80;99.90
16929;DHT22;8581;47.334;11.190;2023-08-01T13:40:15;27.90;99.90
16929;DHT22;8581;47.334;11.190;2023-08-01T13:42:46;29.00;99.90
16929;DHT22;8581;47.334;11.190;2023-08-01T13:45:18;30.20;98.40
16929;DHT22;8581;47.334;11.190;2023-08-01T13:47:49;30.80;99.90
16929;DHT22;8581;47.334;11.190;2023-08-01T13:50:21;30.20;98.80
16929;DHT22;8581;47.334;11.190;2023-08-01T13:52:53;29.50;99.90
16929;DHT22;8581;47.334;11.190;2023-08-01T13:55:24;28.50;99.90
16929;DHT22;8581;47.334;11.190;2023-08-01T13:57:56;26.90;99.90
16929;DHT22;8581;47.334;11.190;2023-08-01T14:00:27;25.50;99.90
16929;DHT22;8581;47.334;11.190;2023-08-01T14:02:59;24.10;99.90
16929;DHT22;8581;47.334;11.190;2023-08-01T14:05:31;23.60;99.90
16929;DHT22;8581;47.334;11.190;2023-08-01T14:08:02;23.20;99.90
16929;DHT22;8581;47.334;11.190;2023-08-01T14:10:34;23.10;99.90
16929;DHT22;8581;47.334;11.190;2023-08-01T14:13:05;23.30;99.90
16929;DHT22;8581;47.334;11.190;2023-08-01T14:15:37;22.90;99.90
16929;DHT22;8581;47.334;11.190;2023-08-01T14:18:09;22.80;99.90
16929;DHT22;8581;47.334;11.190;2023-08-01T14:20:40;22.40;99.90
16929;DHT22;8581;47.334;11.190;2023-08-01T14:23:12;22.70;99.90
16929;DHT22;8581;47.334;11.190;2023-08-01T14:25:43;23.00;99.90
16929;DHT22;8581;47.334;11.190;2023-08-01T14:28:15;22.80;99.90
16929;DHT22;8581;47.334;11.190;2023-08-01T14:30:47;22.70;99.90
16929;DHT22;8581;47.334;11.190;2023-08-01T14:33:18;22.00;99.90
16929;DHT22;8581;47.334;11.190;2023-08-01T14:35:50;21.70;99.90
16929;DHT22;8581;47.334;11.190;2023-08-01T14:38:22;21.70;99.90
16929;DHT22;8581;47.334;11.190;2023-08-01T14:40:53;21.80;99.90
16929;DHT22;8581;47.334;11.190;2023-08-01T14:43:25;21.80;99.90
16929;DHT22;8581;47.334;11.190;2023-08-01T14:45:56;23.20;99.90
16929;DHT22;8581;47.334;11.190;2023-08-01T14:48:28;23.80;99.90
16929;DHT22;8581;47.334;11.190;2023-08-01T14:50:59;23.30;99.90
16929;DHT22;8581;47.334;11.190;2023-08-01T14:53:32;22.60;99.90
16929;DHT22;8581;47.334;11.190;2023-08-01T14:56:04;21.80;99.90
16929;DHT22;8581;47.334;11.190;2023-08-01T14:58:36;21.20;99.90
16929;DHT22;8581;47.334;11.190;2023-08-01T15:01:12;21.50;99.90
16929;DHT22;8581;47.334;11.190;2023-08-01T15:03:43;21.40;99.90
16929;DHT22;8581;47.334;11.190;2023-08-01T15:06:14;21.20;99.90
16929;DHT22;8581;47.334;11.190;2023-08-01T15:08:46;21.00;99.90
16929;DHT22;8581;47.334;11.190;2023-08-01T15:11:18;20.80;99.90
16929;DHT22;8581;47.334;11.190;2023-08-01T15:13:49;20.40;99.90
16929;DHT22;8581;47.334;11.190;2023-08-01T15:16:21;20.30;99.90
16929;DHT22;8581;47.334;11.190;2023-08-01T15:18:52;20.10;99.90
16929;DHT22;8581;47.334;11.190;2023-08-01T15:21:24;20.10;99.90
16929;DHT22;8581;47.334;11.190;2023-08-01T15:23:56;20.50;99.90
16929;DHT22;8581;47.334;11.190;2023-08-01T15:26:27;20.70;99.90
16929;DHT22;8581;47.334;11.190;2023-08-01T15:28:59;20.40;99.90
16929;DHT22;8581;47.334;11.190;2023-08-01T15:31:30;21.00;99.90
16929;DHT22;8581;47.334;11.190;2023-08-01T15:34:02;21.70;99.90
16929;DHT22;8581;47.334;11.190;2023-08-01T15:36:34;21.60;99.90
16929;DHT22;8581;47.334;11.190;2023-08-01T15:39:05;21.20;99.90
16929;DHT22;8581;47.334;11.190;2023-08-01T15:41:37;21.20;99.90
16929;DHT22;8581;47.334;11.190;2023-08-01T15:44:08;21.50;99.90
16929;DHT22;8581;47.334;11.190;2023-08-01T15:46:40;20.70;99.90
16929;DHT22;8581;47.334;11.190;2023-08-01T15:49:12;20.50;99.90
16929;DHT22;8581;47.334;11.190;2023-08-01T15:51:43;20.10;99.90
16929;DHT22;8581;47.334;11.190;2023-08-01T15:54:15;19.50;99.90
16929;DHT22;8581;47.334;11.190;2023-08-01T15:56:46;19.30;99.90
16929;DHT22;8581;47.334;11.190;2023-08-01T15:59:18;19.20;99.90